sensor_id;sensor_type;location;lat;lon;timestamp;P1;durP1;ratioP1;P2;durP2;ratioP2
77278;SDS011;66332;50.436;15.378;2023-11-21T00:02:21;9.18;;;3.97;;
77278;SDS011;66332;50.436;15.378;2023-11-21T00:07:02;9.88;;;4.03;;
77278;SDS011;66332;50.436;15.378;2023-11-21T00:11:43;9.25;;;4.00;;
77278;SDS011;66332;50.436;15.378;2023-11-21T00:16:24;10.38;;;4.13;;
77278;SDS011;66332;50.436;15.378;2023-11-21T00:21:06;10.05;;;4.10;;
77278;SDS011;66332;50.436;15.378;2023-11-21T00:25:46;9.15;;;3.70;;
77278;SDS011;66332;50.436;15.378;2023-11-21T00:30:27;9.35;;;3.22;;
77278;SDS011;66332;50.436;15.378;2023-11-21T00:35:09;11.48;;;4.18;;
77278;SDS011;66332;50.436;15.378;2023-11-21T00:39:50;9.38;;;3.70;;
77278;SDS011;66332;50.436;15.378;2023-11-21T00:44:31;9.18;;;3.88;;
77278;SDS011;66332;50.436;15.378;2023-11-21T00:49:12;9.05;;;3.42;;
77278;SDS011;66332;50.436;15.378;2023-11-21T00:53:53;8.20;;;3.67;;
77278;SDS011;66332;50.436;15.378;2023-11-21T00:58:34;8.20;;;3.03;;
77278;SDS011;66332;50.436;15.378;2023-11-21T01:03:15;8.82;;;3.40;;
77278;SDS011;66332;50.436;15.378;2023-11-21T01:07:56;9.07;;;3.33;;
77278;SDS011;66332;50.436;15.378;2023-11-21T01:12:37;8.52;;;3.00;;
77278;SDS011;66332;50.436;15.378;2023-11-21T01:17:19;10.35;;;3.20;;
77278;SDS011;66332;50.436;15.378;2023-11-21T01:22:00;8.55;;;3.28;;
77278;SDS011;66332;50.436;15.378;2023-11-21T01:26:40;7.13;;;2.92;;
77278;SDS011;66332;50.436;15.378;2023-11-21T01:31:21;8.70;;;3.30;;
77278;SDS011;66332;50.436;15.378;2023-11-21T01:36:02;8.55;;;3.30;;
77278;SDS011;66332;50.436;15.378;2023-11-21T01:40:43;9.45;;;3.60;;
77278;SDS011;66332;50.436;15.378;2023-11-21T01:45:24;8.60;;;3.58;;
77278;SDS011;66332;50.436;15.378;2023-11-21T01:50:06;10.18;;;3.30;;
77278;SDS011;66332;50.436;15.378;2023-11-21T01:54:53;9.02;;;3.65;;
77278;SDS011;66332;50.436;15.378;2023-11-21T01:59:35;8.20;;;3.47;;
77278;SDS011;66332;50.436;15.378;2023-11-21T02:04:17;8.98;;;3.40;;
77278;SDS011;66332;50.436;15.378;2023-11-21T02:08:58;11.38;;;3.90;;
77278;SDS011;66332;50.436;15.378;2023-11-21T02:13:40;9.95;;;4.22;;
77278;SDS011;66332;50.436;15.378;2023-11-21T02:18:23;10.05;;;4.60;;
77278;SDS011;66332;50.436;15.378;2023-11-21T02:23:04;9.18;;;4.38;;
77278;SDS011;66332;50.436;15.378;2023-11-21T02:27:45;8.35;;;4.28;;
77278;SDS011;66332;50.436;15.378;2023-11-21T02:32:28;9.60;;;4.53;;
77278;SDS011;66332;50.436;15.378;2023-11-21T02:37:12;9.32;;;4.15;;
77278;SDS011;66332;50.436;15.378;2023-11-21T02:41:52;8.57;;;4.15;;
77278;SDS011;66332;50.436;15.378;2023-11-21T02:46:33;10.02;;;4.43;;
77278;SDS011;66332;50.436;15.378;2023-11-21T02:55:56;11.65;;;4.43;;
77278;SDS011;66332;50.436;15.378;2023-11-21T03:00:36;10.27;;;4.50;;
77278;SDS011;66332;50.436;15.378;2023-11-21T03:05:17;10.35;;;4.32;;
77278;SDS011;66332;50.436;15.378;2023-11-21T03:09:58;11.43;;;5.10;;
77278;SDS011;66332;50.436;15.378;2023-11-21T03:14:39;12.05;;;5.20;;
77278;SDS011;66332;50.436;15.378;2023-11-21T03:19:20;9.40;;;4.80;;
77278;SDS011;66332;50.436;15.378;2023-11-21T03:24:01;11.38;;;5.55;;
77278;SDS011;66332;50.436;15.378;2023-11-21T03:28:41;11.10;;;4.50;;
77278;SDS011;66332;50.436;15.378;2023-11-21T03:33:22;12.00;;;5.13;;
77278;SDS011;66332;50.436;15.378;2023-11-21T03:38:03;9.55;;;5.05;;
77278;SDS011;66332;50.436;15.378;2023-11-21T03:42:44;10.85;;;5.25;;
77278;SDS011;66332;50.436;15.378;2023-11-21T03:47:28;10.38;;;5.05;;
77278;SDS011;66332;50.436;15.378;2023-11-21T03:52:09;11.48;;;5.00;;
77278;SDS011;66332;50.436;15.378;2023-11-21T03:56:50;10.93;;;5.10;;
77278;SDS011;66332;50.436;15.378;2023-11-21T04:01:31;12.27;;;5.30;;
77278;SDS011;66332;50.436;15.378;2023-11-21T04:06:12;10.63;;;4.97;;
77278;SDS011;66332;50.436;15.378;2023-11-21T04:10:52;13.02;;;6.60;;
77278;SDS011;66332;50.436;15.378;2023-11-21T04:15:34;12.55;;;5.80;;
77278;SDS011;66332;50.436;15.378;2023-11-21T04:20:14;11.80;;;5.63;;
77278;SDS011;66332;50.436;15.378;2023-11-21T04:24:55;11.80;;;5.38;;
77278;SDS011;66332;50.436;15.378;2023-11-21T04:29:36;11.15;;;5.47;;
77278;SDS011;66332;50.436;15.378;2023-11-21T04:34:17;14.30;;;5.65;;
77278;SDS011;66332;50.436;15.378;2023-11-21T04:38:58;11.95;;;5.47;;
77278;SDS011;66332;50.436;15.378;2023-11-21T04:43:39;11.50;;;4.95;;
77278;SDS011;66332;50.436;15.378;2023-11-21T04:48:19;12.75;;;5.45;;
77278;SDS011;66332;50.436;15.378;2023-11-21T04:53:00;11.80;;;5.38;;
77278;SDS011;66332;50.436;15.378;2023-11-21T04:57:41;12.70;;;5.32;;
77278;SDS011;66332;50.436;15.378;2023-11-21T05:02:22;11.73;;;6.03;;
77278;SDS011;66332;50.436;15.378;2023-11-21T05:07:03;11.57;;;5.63;;
77278;SDS011;66332;50.436;15.378;2023-11-21T05:11:43;12.55;;;5.38;;
77278;SDS011;66332;50.436;15.378;2023-11-21T05:16:25;12.00;;;5.25;;
77278;SDS011;66332;50.436;15.378;2023-11-21T05:21:08;11.63;;;6.03;;
77278;SDS011;66332;50.436;15.378;2023-11-21T05:25:48;12.32;;;5.43;;
77278;SDS011;66332;50.436;15.378;2023-11-21T05:30:29;12.00;;;5.32;;
77278;SDS011;66332;50.436;15.378;2023-11-21T05:35:10;10.55;;;5.78;;
77278;SDS011;66332;50.436;15.378;2023-11-21T05:39:55;11.43;;;5.80;;
77278;SDS011;66332;50.436;15.378;2023-11-21T05:44:43;12.45;;;6.18;;
77278;SDS011;66332;50.436;15.378;2023-11-21T05:49:24;12.82;;;5.72;;
77278;SDS011;66332;50.436;15.378;2023-11-21T05:54:06;11.95;;;5.50;;
77278;SDS011;66332;50.436;15.378;2023-11-21T05:58:48;18.13;;;6.28;;
77278;SDS011;66332;50.436;15.378;2023-11-21T06:03:28;12.77;;;5.47;;
77278;SDS011;66332;50.436;15.378;2023-11-21T06:08:10;15.40;;;5.88;;
77278;SDS011;66332;50.436;15.378;2023-11-21T06:12:51;13.07;;;6.70;;
77278;SDS011;66332;50.436;15.378;2023-11-21T06:17:33;13.45;;;5.93;;
77278;SDS011;66332;50.436;15.378;2023-11-21T06:22:16;11.23;;;5.50;;
77278;SDS011;66332;50.436;15.378;2023-11-21T06:26:57;12.98;;;5.75;;
77278;SDS011;66332;50.436;15.378;2023-11-21T06:31:38;10.88;;;5.00;;
77278;SDS011;66332;50.436;15.378;2023-11-21T06:36:20;12.38;;;5.97;;
77278;SDS011;66332;50.436;15.378;2023-11-21T06:41:01;11.20;;;5.95;;
77278;SDS011;66332;50.436;15.378;2023-11-21T06:45:42;11.80;;;5.57;;
77278;SDS011;66332;50.436;15.378;2023-11-21T06:50:24;13.02;;;5.55;;
77278;SDS011;66332;50.436;15.378;2023-11-21T06:55:05;11.50;;;5.63;;
77278;SDS011;66332;50.436;15.378;2023-11-21T06:59:48;12.48;;;6.47;;
77278;SDS011;66332;50.436;15.378;2023-11-21T07:04:30;13.63;;;6.03;;
77278;SDS011;66332;50.436;15.378;2023-11-21T07:09:12;14.35;;;6.82;;
77278;SDS011;66332;50.436;15.378;2023-11-21T07:13:53;9.88;;;5.03;;
77278;SDS011;66332;50.436;15.378;2023-11-21T07:18:34;10.70;;;5.28;;
77278;SDS011;66332;50.436;15.378;2023-11-21T07:23:14;10.13;;;5.13;;
77278;SDS011;66332;50.436;15.378;2023-11-21T07:27:56;10.93;;;5.28;;
77278;SDS011;66332;50.436;15.378;2023-11-21T07:32:36;11.82;;;5.70;;
77278;SDS011;66332;50.436;15.378;2023-11-21T07:37:20;11.65;;;5.13;;
77278;SDS011;66332;50.436;15.378;2023-11-21T07:42:00;15.27;;;5.40;;
77278;SDS011;66332;50.436;15.378;2023-11-21T07:46:42;11.45;;;5.80;;
77278;SDS011;66332;50.436;15.378;2023-11-21T07:51:24;12.15;;;4.88;;
77278;SDS011;66332;50.436;15.378;2023-11-21T07:56:06;11.55;;;5.47;;
77278;SDS011;66332;50.436;15.378;2023-11-21T08:00:48;12.55;;;4.90;;
77278;SDS011;66332;50.436;15.378;2023-11-21T08:05:29;13.93;;;5.40;;
77278;SDS011;66332;50.436;15.378;2023-11-21T08:10:11;13.23;;;5.40;;
77278;SDS011;66332;50.436;15.378;2023-11-21T08:14:52;13.25;;;4.68;;
77278;SDS011;66332;50.436;15.378;2023-11-21T08:19:32;12.70;;;5.47;;
77278;SDS011;66332;50.436;15.378;2023-11-21T08:24:13;13.32;;;5.20;;
77278;SDS011;66332;50.436;15.378;2023-11-21T08:28:54;11.05;;;5.05;;
77278;SDS011;66332;50.436;15.378;2023-11-21T08:33:36;11.82;;;5.43;;
77278;SDS011;66332;50.436;15.378;2023-11-21T08:38:17;12.75;;;5.35;;
77278;SDS011;66332;50.436;15.378;2023-11-21T08:42:58;11.23;;;5.32;;
77278;SDS011;66332;50.436;15.378;2023-11-21T08:47:39;10.57;;;5.13;;
77278;SDS011;66332;50.436;15.378;2023-11-21T08:52:20;11.75;;;4.70;;
77278;SDS011;66332;50.436;15.378;2023-11-21T08:57:04;11.63;;;5.13;;
77278;SDS011;66332;50.436;15.378;2023-11-21T09:06:27;9.65;;;5.32;;
77278;SDS011;66332;50.436;15.378;2023-11-21T09:11:07;11.70;;;4.65;;
77278;SDS011;66332;50.436;15.378;2023-11-21T09:15:48;11.38;;;5.43;;
77278;SDS011;66332;50.436;15.378;2023-11-21T09:25:10;11.40;;;5.20;;
77278;SDS011;66332;50.436;15.378;2023-11-21T09:29:51;13.35;;;6.05;;
77278;SDS011;66332;50.436;15.378;2023-11-21T09:34:34;13.15;;;6.07;;
77278;SDS011;66332;50.436;15.378;2023-11-21T09:39:18;11.65;;;6.03;;
77278;SDS011;66332;50.436;15.378;2023-11-21T09:43:59;13.75;;;5.63;;
77278;SDS011;66332;50.436;15.378;2023-11-21T09:48:43;15.30;;;6.40;;
77278;SDS011;66332;50.436;15.378;2023-11-21T09:53:26;13.93;;;6.75;;
77278;SDS011;66332;50.436;15.378;2023-11-21T09:58:13;13.15;;;6.22;;
77278;SDS011;66332;50.436;15.378;2023-11-21T10:02:54;13.48;;;6.18;;
77278;SDS011;66332;50.436;15.378;2023-11-21T10:07:38;12.30;;;5.07;;
77278;SDS011;66332;50.436;15.378;2023-11-21T10:12:20;10.27;;;5.07;;
77278;SDS011;66332;50.436;15.378;2023-11-21T10:17:04;13.00;;;5.35;;
77278;SDS011;66332;50.436;15.378;2023-11-21T10:21:46;10.05;;;4.45;;
77278;SDS011;66332;50.436;15.378;2023-11-21T10:26:30;11.52;;;5.00;;
77278;SDS011;66332;50.436;15.378;2023-11-21T10:31:12;11.55;;;4.68;;
77278;SDS011;66332;50.436;15.378;2023-11-21T10:35:53;10.00;;;3.63;;
77278;SDS011;66332;50.436;15.378;2023-11-21T10:40:37;8.90;;;3.70;;
77278;SDS011;66332;50.436;15.378;2023-11-21T10:45:19;10.18;;;3.92;;
77278;SDS011;66332;50.436;15.378;2023-11-21T10:50:03;10.73;;;3.80;;
77278;SDS011;66332;50.436;15.378;2023-11-21T10:54:45;9.38;;;3.80;;
77278;SDS011;66332;50.436;15.378;2023-11-21T10:59:28;10.43;;;3.63;;
77278;SDS011;66332;50.436;15.378;2023-11-21T11:04:09;10.00;;;3.58;;
77278;SDS011;66332;50.436;15.378;2023-11-21T11:08:57;13.90;;;3.58;;
77278;SDS011;66332;50.436;15.378;2023-11-21T11:13:39;10.50;;;3.60;;
77278;SDS011;66332;50.436;15.378;2023-11-21T11:18:24;7.40;;;3.25;;
77278;SDS011;66332;50.436;15.378;2023-11-21T11:37:47;12.75;;;4.65;;
77278;SDS011;66332;50.436;15.378;2023-11-21T11:42:28;10.45;;;4.13;;
77278;SDS011;66332;50.436;15.378;2023-11-21T11:47:19;11.20;;;4.22;;
77278;SDS011;66332;50.436;15.378;2023-11-21T11:57:19;13.50;;;4.38;;
77278;SDS011;66332;50.436;15.378;2023-11-21T12:02:04;12.23;;;4.43;;
77278;SDS011;66332;50.436;15.378;2023-11-21T12:06:45;12.25;;;4.53;;
77278;SDS011;66332;50.436;15.378;2023-11-21T12:11:30;12.52;;;3.90;;
77278;SDS011;66332;50.436;15.378;2023-11-21T12:16:15;10.82;;;4.22;;
77278;SDS011;66332;50.436;15.378;2023-11-21T12:20:56;10.30;;;3.72;;
77278;SDS011;66332;50.436;15.378;2023-11-21T12:25:37;12.02;;;4.20;;
77278;SDS011;66332;50.436;15.378;2023-11-21T12:30:21;10.82;;;4.40;;
77278;SDS011;66332;50.436;15.378;2023-11-21T12:35:11;10.32;;;4.40;;
77278;SDS011;66332;50.436;15.378;2023-11-21T12:39:53;14.38;;;4.53;;
77278;SDS011;66332;50.436;15.378;2023-11-21T12:44:38;9.93;;;4.60;;
77278;SDS011;66332;50.436;15.378;2023-11-21T12:49:21;12.57;;;4.45;;
77278;SDS011;66332;50.436;15.378;2023-11-21T12:54:02;13.27;;;4.80;;
77278;SDS011;66332;50.436;15.378;2023-11-21T12:58:44;12.52;;;4.68;;
77278;SDS011;66332;50.436;15.378;2023-11-21T13:03:27;10.60;;;4.30;;
77278;SDS011;66332;50.436;15.378;2023-11-21T13:08:10;12.13;;;4.90;;
77278;SDS011;66332;50.436;15.378;2023-11-21T13:12:53;11.70;;;4.60;;
77278;SDS011;66332;50.436;15.378;2023-11-21T13:17:35;11.43;;;3.85;;
77278;SDS011;66332;50.436;15.378;2023-11-21T13:22:16;10.68;;;4.80;;
77278;SDS011;66332;50.436;15.378;2023-11-21T13:26:58;10.68;;;4.28;;
77278;SDS011;66332;50.436;15.378;2023-11-21T13:31:39;11.90;;;4.53;;
77278;SDS011;66332;50.436;15.378;2023-11-21T13:36:21;11.30;;;4.60;;
77278;SDS011;66332;50.436;15.378;2023-11-21T13:41:03;12.73;;;5.05;;
77278;SDS011;66332;50.436;15.378;2023-11-21T13:45:48;13.10;;;5.00;;
77278;SDS011;66332;50.436;15.378;2023-11-21T13:50:48;11.43;;;5.30;;
77278;SDS011;66332;50.436;15.378;2023-11-21T13:55:47;11.48;;;5.13;;
77278;SDS011;66332;50.436;15.378;2023-11-21T14:00:29;12.57;;;4.53;;
77278;SDS011;66332;50.436;15.378;2023-11-21T14:05:25;11.23;;;5.13;;
77278;SDS011;66332;50.436;15.378;2023-11-21T14:10:09;10.32;;;4.68;;
77278;SDS011;66332;50.436;15.378;2023-11-21T14:14:54;9.35;;;3.80;;
77278;SDS011;66332;50.436;15.378;2023-11-21T14:19:35;8.52;;;2.58;;
77278;SDS011;66332;50.436;15.378;2023-11-21T14:24:19;5.88;;;2.17;;
77278;SDS011;66332;50.436;15.378;2023-11-21T14:29:00;6.70;;;1.90;;
77278;SDS011;66332;50.436;15.378;2023-11-21T14:33:41;5.75;;;2.05;;
77278;SDS011;66332;50.436;15.378;2023-11-21T14:38:22;6.03;;;1.80;;
77278;SDS011;66332;50.436;15.378;2023-11-21T14:43:03;5.95;;;1.88;;
77278;SDS011;66332;50.436;15.378;2023-11-21T14:47:46;5.93;;;1.85;;
77278;SDS011;66332;50.436;15.378;2023-11-21T14:52:45;6.25;;;1.95;;
77278;SDS011;66332;50.436;15.378;2023-11-21T14:57:36;5.65;;;2.00;;
77278;SDS011;66332;50.436;15.378;2023-11-21T15:02:16;5.90;;;2.20;;
77278;SDS011;66332;50.436;15.378;2023-11-21T15:07:03;6.75;;;2.08;;
77278;SDS011;66332;50.436;15.378;2023-11-21T15:11:44;6.18;;;2.10;;
77278;SDS011;66332;50.436;15.378;2023-11-21T15:16:26;5.05;;;1.67;;
77278;SDS011;66332;50.436;15.378;2023-11-21T15:21:07;5.43;;;2.00;;
77278;SDS011;66332;50.436;15.378;2023-11-21T15:25:51;6.13;;;1.98;;
77278;SDS011;66332;50.436;15.378;2023-11-21T15:30:33;5.72;;;1.88;;
77278;SDS011;66332;50.436;15.378;2023-11-21T15:35:13;5.65;;;1.88;;
77278;SDS011;66332;50.436;15.378;2023-11-21T15:39:55;5.28;;;1.73;;
77278;SDS011;66332;50.436;15.378;2023-11-21T15:44:36;6.43;;;2.25;;
77278;SDS011;66332;50.436;15.378;2023-11-21T15:49:17;7.50;;;2.08;;
77278;SDS011;66332;50.436;15.378;2023-11-21T15:54:01;7.28;;;2.47;;
77278;SDS011;66332;50.436;15.378;2023-11-21T15:58:42;6.35;;;2.20;;
77278;SDS011;66332;50.436;15.378;2023-11-21T16:03:23;6.43;;;2.28;;
77278;SDS011;66332;50.436;15.378;2023-11-21T16:08:04;7.28;;;2.80;;
77278;SDS011;66332;50.436;15.378;2023-11-21T16:12:45;6.22;;;2.20;;
77278;SDS011;66332;50.436;15.378;2023-11-21T16:17:26;5.82;;;1.92;;
77278;SDS011;66332;50.436;15.378;2023-11-21T16:22:07;6.05;;;2.28;;
77278;SDS011;66332;50.436;15.378;2023-11-21T16:26:48;6.07;;;2.00;;
77278;SDS011;66332;50.436;15.378;2023-11-21T16:31:29;8.85;;;3.55;;
77278;SDS011;66332;50.436;15.378;2023-11-21T16:36:10;7.28;;;2.67;;
77278;SDS011;66332;50.436;15.378;2023-11-21T16:40:51;7.50;;;2.97;;
77278;SDS011;66332;50.436;15.378;2023-11-21T16:45:31;7.80;;;3.25;;
77278;SDS011;66332;50.436;15.378;2023-11-21T16:50:12;8.45;;;2.63;;
77278;SDS011;66332;50.436;15.378;2023-11-21T16:54:53;7.35;;;2.60;;
77278;SDS011;66332;50.436;15.378;2023-11-21T16:59:34;7.35;;;2.60;;
77278;SDS011;66332;50.436;15.378;2023-11-21T17:04:15;7.22;;;2.97;;
77278;SDS011;66332;50.436;15.378;2023-11-21T17:08:59;5.25;;;1.85;;
77278;SDS011;66332;50.436;15.378;2023-11-21T17:13:41;7.72;;;2.58;;
77278;SDS011;66332;50.436;15.378;2023-11-21T17:18:22;5.95;;;2.28;;
77278;SDS011;66332;50.436;15.378;2023-11-21T17:23:03;6.45;;;1.95;;
77278;SDS011;66332;50.436;15.378;2023-11-21T17:27:46;6.22;;;2.22;;
77278;SDS011;66332;50.436;15.378;2023-11-21T17:32:27;7.82;;;2.80;;
77278;SDS011;66332;50.436;15.378;2023-11-21T17:37:09;7.20;;;2.55;;
77278;SDS011;66332;50.436;15.378;2023-11-21T17:41:52;6.15;;;2.10;;
77278;SDS011;66332;50.436;15.378;2023-11-21T17:46:33;5.53;;;2.03;;
77278;SDS011;66332;50.436;15.378;2023-11-21T17:51:14;6.18;;;1.83;;
77278;SDS011;66332;50.436;15.378;2023-11-21T17:55:55;5.07;;;1.77;;
77278;SDS011;66332;50.436;15.378;2023-11-21T18:00:36;7.25;;;2.92;;
77278;SDS011;66332;50.436;15.378;2023-11-21T18:05:17;7.90;;;2.88;;
77278;SDS011;66332;50.436;15.378;2023-11-21T18:09:59;6.82;;;1.85;;
77278;SDS011;66332;50.436;15.378;2023-11-21T18:14:40;7.47;;;2.47;;
77278;SDS011;66332;50.436;15.378;2023-11-21T18:19:21;7.97;;;2.00;;
77278;SDS011;66332;50.436;15.378;2023-11-21T18:24:02;5.47;;;1.90;;
77278;SDS011;66332;50.436;15.378;2023-11-21T18:28:43;6.78;;;1.92;;
77278;SDS011;66332;50.436;15.378;2023-11-21T18:33:24;5.75;;;1.73;;
77278;SDS011;66332;50.436;15.378;2023-11-21T18:38:05;6.18;;;2.30;;
77278;SDS011;66332;50.436;15.378;2023-11-21T18:42:45;6.72;;;1.80;;
77278;SDS011;66332;50.436;15.378;2023-11-21T18:47:26;5.70;;;1.77;;
77278;SDS011;66332;50.436;15.378;2023-11-21T18:52:07;6.47;;;1.92;;
77278;SDS011;66332;50.436;15.378;2023-11-21T18:56:48;7.78;;;2.08;;
77278;SDS011;66332;50.436;15.378;2023-11-21T19:01:29;5.78;;;1.70;;
77278;SDS011;66332;50.436;15.378;2023-11-21T19:06:10;8.38;;;2.40;;
77278;SDS011;66332;50.436;15.378;2023-11-21T19:10:52;5.43;;;1.73;;
77278;SDS011;66332;50.436;15.378;2023-11-21T19:15:36;4.40;;;1.50;;
77278;SDS011;66332;50.436;15.378;2023-11-21T19:20:17;6.70;;;1.95;;
77278;SDS011;66332;50.436;15.378;2023-11-21T19:24:58;6.50;;;2.00;;
77278;SDS011;66332;50.436;15.378;2023-11-21T19:29:40;7.57;;;1.80;;
77278;SDS011;66332;50.436;15.378;2023-11-21T19:34:20;7.75;;;2.33;;
77278;SDS011;66332;50.436;15.378;2023-11-21T19:39:01;8.88;;;2.50;;
77278;SDS011;66332;50.436;15.378;2023-11-21T19:43:43;7.68;;;2.30;;
77278;SDS011;66332;50.436;15.378;2023-11-21T19:48:24;7.55;;;2.40;;
77278;SDS011;66332;50.436;15.378;2023-11-21T19:53:06;7.30;;;2.58;;
77278;SDS011;66332;50.436;15.378;2023-11-21T19:57:48;6.03;;;2.20;;
77278;SDS011;66332;50.436;15.378;2023-11-21T20:02:30;7.25;;;2.17;;
77278;SDS011;66332;50.436;15.378;2023-11-21T20:07:11;6.30;;;2.58;;
77278;SDS011;66332;50.436;15.378;2023-11-21T20:11:54;6.20;;;2.35;;
77278;SDS011;66332;50.436;15.378;2023-11-21T20:16:39;6.88;;;2.33;;
77278;SDS011;66332;50.436;15.378;2023-11-21T20:21:21;6.70;;;2.28;;
77278;SDS011;66332;50.436;15.378;2023-11-21T20:30:45;6.13;;;2.35;;
77278;SDS011;66332;50.436;15.378;2023-11-21T20:35:26;6.72;;;2.70;;
77278;SDS011;66332;50.436;15.378;2023-11-21T20:40:07;6.45;;;2.13;;
77278;SDS011;66332;50.436;15.378;2023-11-21T20:44:48;8.82;;;3.13;;
77278;SDS011;66332;50.436;15.378;2023-11-21T20:49:30;8.45;;;2.78;;
77278;SDS011;66332;50.436;15.378;2023-11-21T20:54:11;7.25;;;2.28;;
77278;SDS011;66332;50.436;15.378;2023-11-21T20:58:52;7.65;;;2.00;;
77278;SDS011;66332;50.436;15.378;2023-11-21T21:03:33;5.35;;;1.83;;
77278;SDS011;66332;50.436;15.378;2023-11-21T21:08:14;8.23;;;2.70;;
77278;SDS011;66332;50.436;15.378;2023-11-21T21:12:54;6.53;;;2.10;;
77278;SDS011;66332;50.436;15.378;2023-11-21T21:17:37;6.18;;;1.98;;
77278;SDS011;66332;50.436;15.378;2023-11-21T21:22:20;5.80;;;2.30;;
77278;SDS011;66332;50.436;15.378;2023-11-21T21:27:01;6.45;;;1.90;;
77278;SDS011;66332;50.436;15.378;2023-11-21T21:31:42;7.32;;;2.55;;
77278;SDS011;66332;50.436;15.378;2023-11-21T21:36:23;7.35;;;2.10;;
77278;SDS011;66332;50.436;15.378;2023-11-21T21:41:07;8.32;;;1.88;;
77278;SDS011;66332;50.436;15.378;2023-11-21T21:45:50;6.65;;;2.33;;
77278;SDS011;66332;50.436;15.378;2023-11-21T21:50:31;6.97;;;2.55;;
77278;SDS011;66332;50.436;15.378;2023-11-21T21:55:12;7.03;;;2.83;;
77278;SDS011;66332;50.436;15.378;2023-11-21T21:59:56;8.48;;;3.50;;
77278;SDS011;66332;50.436;15.378;2023-11-21T22:04:37;7.88;;;3.00;;
77278;SDS011;66332;50.436;15.378;2023-11-21T22:09:20;7.07;;;2.35;;
77278;SDS011;66332;50.436;15.378;2023-11-21T22:14:01;7.13;;;2.63;;
77278;SDS011;66332;50.436;15.378;2023-11-21T22:18:43;7.15;;;2.53;;
77278;SDS011;66332;50.436;15.378;2023-11-21T22:23:25;7.65;;;2.78;;
77278;SDS011;66332;50.436;15.378;2023-11-21T22:28:06;9.00;;;3.50;;
77278;SDS011;66332;50.436;15.378;2023-11-21T22:37:31;8.65;;;3.80;;
77278;SDS011;66332;50.436;15.378;2023-11-21T22:42:12;8.90;;;4.13;;
77278;SDS011;66332;50.436;15.378;2023-11-21T22:46:52;9.35;;;3.70;;
77278;SDS011;66332;50.436;15.378;2023-11-21T22:51:33;8.48;;;3.40;;
77278;SDS011;66332;50.436;15.378;2023-11-21T22:56:14;8.10;;;2.97;;
77278;SDS011;66332;50.436;15.378;2023-11-21T23:00:56;12.88;;;6.15;;
77278;SDS011;66332;50.436;15.378;2023-11-21T23:05:37;8.57;;;3.60;;
77278;SDS011;66332;50.436;15.378;2023-11-21T23:10:19;8.00;;;3.38;;
77278;SDS011;66332;50.436;15.378;2023-11-21T23:15:02;8.07;;;2.95;;
77278;SDS011;66332;50.436;15.378;2023-11-21T23:19:43;7.20;;;2.78;;
77278;SDS011;66332;50.436;15.378;2023-11-21T23:24:24;8.75;;;2.88;;
77278;SDS011;66332;50.436;15.378;2023-11-21T23:29:05;7.40;;;2.90;;
77278;SDS011;66332;50.436;15.378;2023-11-21T23:33:46;7.70;;;3.03;;
77278;SDS011;66332;50.436;15.378;2023-11-21T23:38:27;9.43;;;2.67;;
77278;SDS011;66332;50.436;15.378;2023-11-21T23:43:08;9.60;;;3.78;;
77278;SDS011;66332;50.436;15.378;2023-11-21T23:47:49;10.10;;;4.20;;
77278;SDS011;66332;50.436;15.378;2023-11-21T23:52:29;8.25;;;3.40;;
77278;SDS011;66332;50.436;15.378;2023-11-21T23:57:10;9.00;;;3.67;;
